sensor_id;sensor_type;location;lat;lon;timestamp;pressure;altitude;pressure_sealevel;temperature;humidity
7200;BME280;3641;49.082;8.200;2023-07-16T00:02:24;100113.63;;;18.59;100.00
7200;BME280;3641;49.082;8.200;2023-07-16T00:04:50;100119.44;;;18.86;100.00
7200;BME280;3641;49.082;8.200;2023-07-16T00:07:17;100106.00;;;18.66;100.00
7200;BME280;3641;49.082;8.200;2023-07-16T00:09:43;100095.38;;;18.99;100.00
7200;BME280;3641;49.082;8.200;2023-07-16T00:12:11;100104.19;;;18.84;100.00
7200;BME280;3641;49.082;8.200;2023-07-16T00:14:38;100112.97;;;18.69;100.00
7200;BME280;3641;49.082;8.200;2023-07-16T00:17:04;100105.88;;;18.85;100.00
7200;BME280;3641;49.082;8.200;2023-07-16T00:19:31;100090.28;;;18.55;100.00
7200;BME280;3641;49.082;8.200;2023-07-16T00:21:57;100097.72;;;18.66;100.00
7200;BME280;3641;49.082;8.200;2023-07-16T00:24:23;100082.16;;;18.48;100.00
7200;BME280;3641;49.082;8.200;2023-07-16T00:26:50;100061.72;;;18.90;100.00
7200;BME280;3641;49.082;8.200;2023-07-16T00:29:18;100061.44;;;19.03;100.00
7200;BME280;3641;49.082;8.200;2023-07-16T00:31:44;100109.56;;;18.91;100.00
7200;BME280;3641;49.082;8.200;2023-07-16T00:34:10;100150.41;;;18.48;100.00
7200;BME280;3641;49.082;8.200;2023-07-16T00:36:38;100151.50;;;18.47;100.00
7200;BME280;3641;49.082;8.200;2023-07-16T00:39:04;100145.38;;;18.45;100.00
7200;BME280;3641;49.082;8.200;2023-07-16T00:41:31;100137.91;;;18.45;100.00
7200;BME280;3641;49.082;8.200;2023-07-16T00:43:57;100133.69;;;18.55;100.00
7200;BME280;3641;49.082;8.200;2023-07-16T00:46:25;100141.47;;;18.69;100.00
7200;BME280;3641;49.082;8.200;2023-07-16T00:48:52;100133.97;;;19.22;92.49
7200;BME280;3641;49.082;8.200;2023-07-16T00:51:19;100138.50;;;18.59;100.00
7200;BME280;3641;49.082;8.200;2023-07-16T00:53:48;100144.41;;;18.51;98.31
7200;BME280;3641;49.082;8.200;2023-07-16T00:56:16;100135.31;;;18.79;96.68
7200;BME280;3641;49.082;8.200;2023-07-16T00:58:42;100151.56;;;18.76;95.92
7200;BME280;3641;49.082;8.200;2023-07-16T01:01:09;100155.81;;;18.55;95.47
7200;BME280;3641;49.082;8.200;2023-07-16T01:03:37;100158.53;;;18.66;94.11
7200;BME280;3641;49.082;8.200;2023-07-16T01:06:10;100162.66;;;18.52;94.51
7200;BME280;3641;49.082;8.200;2023-07-16T01:08:41;100181.69;;;18.37;95.54
7200;BME280;3641;49.082;8.200;2023-07-16T01:11:09;100178.03;;;18.72;92.65
7200;BME280;3641;49.082;8.200;2023-07-16T01:13:36;100172.66;;;18.06;96.60
7200;BME280;3641;49.082;8.200;2023-07-16T01:16:02;100152.56;;;18.58;94.14
7200;BME280;3641;49.082;8.200;2023-07-16T01:18:29;100182.72;;;18.59;93.27
7200;BME280;3641;49.082;8.200;2023-07-16T01:20:57;100174.81;;;18.27;95.32
7200;BME280;3641;49.082;8.200;2023-07-16T01:23:39;100180.72;;;18.43;92.70
7200;BME280;3641;49.082;8.200;2023-07-16T01:26:29;100170.47;;;18.31;95.25
7200;BME280;3641;49.082;8.200;2023-07-16T01:29:32;100175.03;;;18.38;94.11
7200;BME280;3641;49.082;8.200;2023-07-16T01:32:00;100166.75;;;18.49;90.49
7200;BME280;3641;49.082;8.200;2023-07-16T01:34:31;100169.75;;;18.36;94.27
7200;BME280;3641;49.082;8.200;2023-07-16T01:36:59;100179.56;;;18.91;85.38
7200;BME280;3641;49.082;8.200;2023-07-16T01:39:25;100182.63;;;18.54;91.32
7200;BME280;3641;49.082;8.200;2023-07-16T01:41:52;100184.31;;;18.43;92.33
7200;BME280;3641;49.082;8.200;2023-07-16T01:44:19;100186.69;;;18.51;91.28
7200;BME280;3641;49.082;8.200;2023-07-16T01:47:00;100174.31;;;18.66;90.15
7200;BME280;3641;49.082;8.200;2023-07-16T01:49:30;100184.03;;;18.57;90.56
7200;BME280;3641;49.082;8.200;2023-07-16T01:51:56;100185.94;;;18.68;92.62
7200;BME280;3641;49.082;8.200;2023-07-16T01:54:22;100185.25;;;18.84;89.15
7200;BME280;3641;49.082;8.200;2023-07-16T01:56:49;100191.34;;;18.75;92.55
7200;BME280;3641;49.082;8.200;2023-07-16T01:59:15;100201.13;;;18.30;94.71
7200;BME280;3641;49.082;8.200;2023-07-16T02:01:41;100197.38;;;18.12;95.75
7200;BME280;3641;49.082;8.200;2023-07-16T02:04:09;100203.25;;;17.92;100.00
7200;BME280;3641;49.082;8.200;2023-07-16T02:06:36;100192.69;;;18.60;88.45
7200;BME280;3641;49.082;8.200;2023-07-16T02:09:02;100192.28;;;19.04;85.26
7200;BME280;3641;49.082;8.200;2023-07-16T02:11:29;100195.22;;;18.74;87.91
7200;BME280;3641;49.082;8.200;2023-07-16T02:13:55;100198.22;;;18.60;90.36
7200;BME280;3641;49.082;8.200;2023-07-16T02:16:22;100207.38;;;18.25;98.27
7200;BME280;3641;49.082;8.200;2023-07-16T02:18:52;100213.47;;;18.04;99.22
7200;BME280;3641;49.082;8.200;2023-07-16T02:21:20;100214.09;;;18.18;97.88
7200;BME280;3641;49.082;8.200;2023-07-16T02:23:46;100211.56;;;17.62;100.00
7200;BME280;3641;49.082;8.200;2023-07-16T02:26:12;100215.59;;;17.90;98.36
7200;BME280;3641;49.082;8.200;2023-07-16T02:28:39;100205.09;;;18.46;90.74
7200;BME280;3641;49.082;8.200;2023-07-16T02:31:05;100216.47;;;18.14;96.03
7200;BME280;3641;49.082;8.200;2023-07-16T02:33:32;100222.25;;;18.60;89.74
7200;BME280;3641;49.082;8.200;2023-07-16T02:35:58;100228.03;;;18.23;93.61
7200;BME280;3641;49.082;8.200;2023-07-16T02:38:26;100234.13;;;18.01;96.92
7200;BME280;3641;49.082;8.200;2023-07-16T02:40:52;100237.91;;;18.54;87.42
7200;BME280;3641;49.082;8.200;2023-07-16T02:43:19;100250.63;;;18.31;90.54
7200;BME280;3641;49.082;8.200;2023-07-16T02:45:46;100257.31;;;17.70;98.25
7200;BME280;3641;49.082;8.200;2023-07-16T02:48:12;100249.19;;;17.45;100.00
7200;BME280;3641;49.082;8.200;2023-07-16T02:50:39;100262.72;;;17.65;98.71
7200;BME280;3641;49.082;8.200;2023-07-16T02:53:06;100280.47;;;17.20;100.00
7200;BME280;3641;49.082;8.200;2023-07-16T02:55:34;100275.31;;;17.42;100.00
7200;BME280;3641;49.082;8.200;2023-07-16T02:58:01;100270.47;;;17.37;99.96
7200;BME280;3641;49.082;8.200;2023-07-16T03:00:30;100267.06;;;17.23;99.04
7200;BME280;3641;49.082;8.200;2023-07-16T03:02:56;100273.19;;;17.25;100.00
7200;BME280;3641;49.082;8.200;2023-07-16T03:05:23;100280.09;;;17.16;100.00
7200;BME280;3641;49.082;8.200;2023-07-16T03:07:50;100271.22;;;17.14;100.00
7200;BME280;3641;49.082;8.200;2023-07-16T03:10:17;100270.25;;;17.39;98.63
7200;BME280;3641;49.082;8.200;2023-07-16T03:12:44;100272.44;;;17.97;90.41
7200;BME280;3641;49.082;8.200;2023-07-16T03:15:11;100261.28;;;17.74;92.77
7200;BME280;3641;49.082;8.200;2023-07-16T03:17:37;100262.44;;;17.36;95.91
7200;BME280;3641;49.082;8.200;2023-07-16T03:20:05;100270.56;;;17.31;96.86
7200;BME280;3641;49.082;8.200;2023-07-16T03:22:32;100270.66;;;17.73;92.53
7200;BME280;3641;49.082;8.200;2023-07-16T03:24:59;100263.47;;;17.84;89.07
7200;BME280;3641;49.082;8.200;2023-07-16T03:27:25;100267.03;;;17.42;96.07
7200;BME280;3641;49.082;8.200;2023-07-16T03:29:53;100274.34;;;17.67;92.43
7200;BME280;3641;49.082;8.200;2023-07-16T03:32:19;100283.41;;;17.25;97.12
7200;BME280;3641;49.082;8.200;2023-07-16T03:34:46;100281.06;;;17.71;92.72
7200;BME280;3641;49.082;8.200;2023-07-16T03:37:12;100295.28;;;18.17;86.64
7200;BME280;3641;49.082;8.200;2023-07-16T03:39:38;100290.56;;;17.93;88.95
7200;BME280;3641;49.082;8.200;2023-07-16T03:42:05;100292.88;;;17.29;95.60
7200;BME280;3641;49.082;8.200;2023-07-16T03:44:31;100305.75;;;17.84;89.61
7200;BME280;3641;49.082;8.200;2023-07-16T03:46:59;100299.22;;;17.78;91.31
7200;BME280;3641;49.082;8.200;2023-07-16T03:49:25;100306.06;;;17.46;94.37
7200;BME280;3641;49.082;8.200;2023-07-16T03:51:52;100311.97;;;16.94;97.92
7200;BME280;3641;49.082;8.200;2023-07-16T03:54:18;100321.00;;;17.38;93.59
7200;BME280;3641;49.082;8.200;2023-07-16T03:56:44;100327.97;;;16.78;99.16
7200;BME280;3641;49.082;8.200;2023-07-16T03:59:11;100322.09;;;17.18;97.16
7200;BME280;3641;49.082;8.200;2023-07-16T04:01:37;100328.56;;;16.87;100.00
7200;BME280;3641;49.082;8.200;2023-07-16T04:04:05;100334.50;;;17.28;93.61
7200;BME280;3641;49.082;8.200;2023-07-16T04:06:31;100327.88;;;16.66;100.00
7200;BME280;3641;49.082;8.200;2023-07-16T04:08:58;100330.25;;;16.63;100.00
7200;BME280;3641;49.082;8.200;2023-07-16T04:11:24;100347.53;;;17.20;94.83
7200;BME280;3641;49.082;8.200;2023-07-16T04:13:51;100347.13;;;16.73;99.60
7200;BME280;3641;49.082;8.200;2023-07-16T04:16:17;100346.44;;;16.78;98.28
7200;BME280;3641;49.082;8.200;2023-07-16T04:18:43;100349.03;;;16.73;98.35
7200;BME280;3641;49.082;8.200;2023-07-16T04:21:11;100348.22;;;16.72;99.74
7200;BME280;3641;49.082;8.200;2023-07-16T04:23:38;100354.94;;;17.01;97.20
7200;BME280;3641;49.082;8.200;2023-07-16T04:26:04;100350.34;;;17.32;93.70
7200;BME280;3641;49.082;8.200;2023-07-16T04:28:30;100357.94;;;17.55;88.01
7200;BME280;3641;49.082;8.200;2023-07-16T04:30:57;100359.16;;;17.78;87.19
7200;BME280;3641;49.082;8.200;2023-07-16T04:33:23;100358.72;;;17.44;92.02
7200;BME280;3641;49.082;8.200;2023-07-16T04:35:50;100367.19;;;17.79;89.74
7200;BME280;3641;49.082;8.200;2023-07-16T04:38:17;100361.19;;;17.15;94.15
7200;BME280;3641;49.082;8.200;2023-07-16T04:40:44;100368.44;;;17.65;89.42
7200;BME280;3641;49.082;8.200;2023-07-16T04:43:10;100366.81;;;17.76;87.63
7200;BME280;3641;49.082;8.200;2023-07-16T04:45:37;100369.69;;;18.00;86.16
7200;BME280;3641;49.082;8.200;2023-07-16T04:48:05;100369.97;;;17.79;86.89
7200;BME280;3641;49.082;8.200;2023-07-16T04:50:31;100372.66;;;17.31;92.74
7200;BME280;3641;49.082;8.200;2023-07-16T04:52:58;100379.88;;;17.32;93.10
7200;BME280;3641;49.082;8.200;2023-07-16T04:55:25;100385.00;;;17.28;93.03
7200;BME280;3641;49.082;8.200;2023-07-16T04:57:52;100396.63;;;17.12;95.75
7200;BME280;3641;49.082;8.200;2023-07-16T05:00:19;100389.31;;;16.99;95.58
7200;BME280;3641;49.082;8.200;2023-07-16T05:02:46;100389.25;;;17.05;95.92
7200;BME280;3641;49.082;8.200;2023-07-16T05:05:12;100393.63;;;16.95;97.35
7200;BME280;3641;49.082;8.200;2023-07-16T05:07:39;100396.53;;;17.00;97.01
7200;BME280;3641;49.082;8.200;2023-07-16T05:10:06;100389.72;;;16.77;98.83
7200;BME280;3641;49.082;8.200;2023-07-16T05:12:34;100400.34;;;16.48;100.00
7200;BME280;3641;49.082;8.200;2023-07-16T05:15:00;100392.59;;;16.89;98.55
7200;BME280;3641;49.082;8.200;2023-07-16T05:17:27;100397.50;;;17.12;97.09
7200;BME280;3641;49.082;8.200;2023-07-16T05:19:53;100401.94;;;16.88;99.54
7200;BME280;3641;49.082;8.200;2023-07-16T05:22:20;100395.72;;;17.18;96.19
7200;BME280;3641;49.082;8.200;2023-07-16T05:24:46;100401.25;;;16.93;98.52
7200;BME280;3641;49.082;8.200;2023-07-16T05:27:13;100397.38;;;17.00;96.88
7200;BME280;3641;49.082;8.200;2023-07-16T05:29:40;100397.66;;;17.36;94.72
7200;BME280;3641;49.082;8.200;2023-07-16T05:32:08;100396.69;;;17.49;92.14
7200;BME280;3641;49.082;8.200;2023-07-16T05:34:34;100406.41;;;17.33;94.21
7200;BME280;3641;49.082;8.200;2023-07-16T05:37:00;100406.47;;;17.45;91.99
7200;BME280;3641;49.082;8.200;2023-07-16T05:39:27;100408.94;;;17.53;91.31
7200;BME280;3641;49.082;8.200;2023-07-16T05:41:54;100403.47;;;17.28;93.35
7200;BME280;3641;49.082;8.200;2023-07-16T05:44:20;100410.06;;;17.82;90.04
7200;BME280;3641;49.082;8.200;2023-07-16T05:46:50;100409.81;;;18.21;85.13
7200;BME280;3641;49.082;8.200;2023-07-16T05:49:16;100412.06;;;17.56;92.07
7200;BME280;3641;49.082;8.200;2023-07-16T05:51:43;100411.09;;;17.88;90.78
7200;BME280;3641;49.082;8.200;2023-07-16T05:54:09;100411.28;;;17.68;92.38
7200;BME280;3641;49.082;8.200;2023-07-16T05:56:36;100419.72;;;18.10;89.78
7200;BME280;3641;49.082;8.200;2023-07-16T05:59:05;100419.13;;;18.38;86.06
7200;BME280;3641;49.082;8.200;2023-07-16T06:01:36;100427.25;;;18.03;89.92
7200;BME280;3641;49.082;8.200;2023-07-16T06:04:04;100426.16;;;17.85;91.88
7200;BME280;3641;49.082;8.200;2023-07-16T06:06:30;100432.97;;;18.20;88.67
7200;BME280;3641;49.082;8.200;2023-07-16T06:08:57;100423.88;;;18.01;90.60
7200;BME280;3641;49.082;8.200;2023-07-16T06:11:23;100429.41;;;18.01;90.45
7200;BME280;3641;49.082;8.200;2023-07-16T06:13:55;100421.88;;;18.08;88.98
7200;BME280;3641;49.082;8.200;2023-07-16T06:16:22;100422.13;;;18.37;87.37
7200;BME280;3641;49.082;8.200;2023-07-16T06:18:49;100418.84;;;18.70;85.52
7200;BME280;3641;49.082;8.200;2023-07-16T06:21:17;100425.69;;;18.67;84.76
7200;BME280;3641;49.082;8.200;2023-07-16T06:24:02;100431.75;;;18.88;85.07
7200;BME280;3641;49.082;8.200;2023-07-16T06:26:29;100421.19;;;18.55;83.34
7200;BME280;3641;49.082;8.200;2023-07-16T06:28:59;100425.16;;;18.89;83.18
7200;BME280;3641;49.082;8.200;2023-07-16T06:31:26;100426.94;;;18.95;80.82
7200;BME280;3641;49.082;8.200;2023-07-16T06:33:52;100428.38;;;19.81;77.90
7200;BME280;3641;49.082;8.200;2023-07-16T06:36:21;100431.72;;;19.94;76.62
7200;BME280;3641;49.082;8.200;2023-07-16T06:38:47;100433.00;;;20.04;75.82
7200;BME280;3641;49.082;8.200;2023-07-16T06:41:14;100431.88;;;19.64;76.67
7200;BME280;3641;49.082;8.200;2023-07-16T06:43:40;100431.81;;;20.00;77.84
7200;BME280;3641;49.082;8.200;2023-07-16T06:46:09;100442.44;;;19.67;78.05
7200;BME280;3641;49.082;8.200;2023-07-16T06:48:35;100444.91;;;19.28;78.90
7200;BME280;3641;49.082;8.200;2023-07-16T06:51:02;100454.50;;;19.49;78.40
7200;BME280;3641;49.082;8.200;2023-07-16T06:53:36;100445.16;;;19.15;76.99
7200;BME280;3641;49.082;8.200;2023-07-16T06:56:05;100454.28;;;19.15;77.37
7200;BME280;3641;49.082;8.200;2023-07-16T06:58:35;100448.16;;;19.13;76.89
7200;BME280;3641;49.082;8.200;2023-07-16T07:01:05;100447.88;;;18.91;78.01
7200;BME280;3641;49.082;8.200;2023-07-16T07:03:34;100444.38;;;18.84;78.54
7200;BME280;3641;49.082;8.200;2023-07-16T07:06:05;100451.75;;;18.60;78.49
7200;BME280;3641;49.082;8.200;2023-07-16T07:08:31;100442.56;;;18.47;79.56
7200;BME280;3641;49.082;8.200;2023-07-16T07:10:59;100443.50;;;18.72;78.43
7200;BME280;3641;49.082;8.200;2023-07-16T07:13:51;100447.88;;;18.91;77.70
7200;BME280;3641;49.082;8.200;2023-07-16T07:16:21;100450.28;;;18.87;77.93
7200;BME280;3641;49.082;8.200;2023-07-16T07:18:47;100459.31;;;19.06;76.87
7200;BME280;3641;49.082;8.200;2023-07-16T07:21:17;100449.47;;;19.11;74.68
7200;BME280;3641;49.082;8.200;2023-07-16T07:23:46;100458.09;;;18.91;75.44
7200;BME280;3641;49.082;8.200;2023-07-16T07:26:15;100460.25;;;18.88;76.25
7200;BME280;3641;49.082;8.200;2023-07-16T07:28:41;100469.06;;;18.97;76.21
7200;BME280;3641;49.082;8.200;2023-07-16T07:31:08;100466.19;;;19.16;74.73
7200;BME280;3641;49.082;8.200;2023-07-16T07:33:34;100463.09;;;18.82;75.45
7200;BME280;3641;49.082;8.200;2023-07-16T07:36:01;100470.00;;;18.91;76.95
7200;BME280;3641;49.082;8.200;2023-07-16T07:38:27;100467.63;;;19.30;76.21
7200;BME280;3641;49.082;8.200;2023-07-16T07:40:54;100468.59;;;19.36;76.15
7200;BME280;3641;49.082;8.200;2023-07-16T07:43:21;100474.38;;;19.22;75.45
7200;BME280;3641;49.082;8.200;2023-07-16T07:45:48;100469.81;;;18.74;74.39
7200;BME280;3641;49.082;8.200;2023-07-16T07:48:14;100478.59;;;19.13;74.07
7200;BME280;3641;49.082;8.200;2023-07-16T07:50:41;100473.06;;;19.25;74.33
7200;BME280;3641;49.082;8.200;2023-07-16T07:53:07;100472.47;;;19.47;73.67
7200;BME280;3641;49.082;8.200;2023-07-16T07:55:34;100464.41;;;19.45;74.12
7200;BME280;3641;49.082;8.200;2023-07-16T07:58:01;100472.94;;;19.44;72.71
7200;BME280;3641;49.082;8.200;2023-07-16T08:00:28;100470.53;;;19.12;74.66
7200;BME280;3641;49.082;8.200;2023-07-16T08:02:55;100467.53;;;19.13;74.08
7200;BME280;3641;49.082;8.200;2023-07-16T08:05:22;100471.84;;;19.56;74.11
7200;BME280;3641;49.082;8.200;2023-07-16T08:07:48;100476.53;;;19.80;72.88
7200;BME280;3641;49.082;8.200;2023-07-16T08:10:17;100475.59;;;19.50;70.97
7200;BME280;3641;49.082;8.200;2023-07-16T08:12:43;100471.84;;;19.45;73.31
7200;BME280;3641;49.082;8.200;2023-07-16T08:15:10;100482.81;;;19.39;68.52
7200;BME280;3641;49.082;8.200;2023-07-16T08:17:40;100473.16;;;19.30;68.46
7200;BME280;3641;49.082;8.200;2023-07-16T08:20:08;100461.25;;;19.65;69.22
7200;BME280;3641;49.082;8.200;2023-07-16T08:22:34;100470.41;;;19.77;67.59
7200;BME280;3641;49.082;8.200;2023-07-16T08:25:01;100468.31;;;19.96;65.60
7200;BME280;3641;49.082;8.200;2023-07-16T08:27:28;100468.47;;;19.66;65.83
7200;BME280;3641;49.082;8.200;2023-07-16T08:29:55;100466.13;;;19.99;67.14
7200;BME280;3641;49.082;8.200;2023-07-16T08:32:21;100467.97;;;20.33;67.02
7200;BME280;3641;49.082;8.200;2023-07-16T08:34:49;100464.63;;;20.20;64.90
7200;BME280;3641;49.082;8.200;2023-07-16T08:37:16;100467.41;;;20.20;63.86
7200;BME280;3641;49.082;8.200;2023-07-16T08:39:42;100460.22;;;20.07;62.37
7200;BME280;3641;49.082;8.200;2023-07-16T08:42:09;100462.81;;;20.25;61.47
7200;BME280;3641;49.082;8.200;2023-07-16T08:44:37;100466.63;;;20.36;60.70
7200;BME280;3641;49.082;8.200;2023-07-16T08:47:04;100458.75;;;20.16;62.07
7200;BME280;3641;49.082;8.200;2023-07-16T08:49:33;100469.59;;;20.18;61.79
7200;BME280;3641;49.082;8.200;2023-07-16T08:52:02;100471.94;;;20.38;62.61
7200;BME280;3641;49.082;8.200;2023-07-16T08:54:28;100465.69;;;20.30;60.41
7200;BME280;3641;49.082;8.200;2023-07-16T08:56:55;100469.09;;;20.49;61.09
7200;BME280;3641;49.082;8.200;2023-07-16T08:59:22;100472.41;;;20.63;62.79
7200;BME280;3641;49.082;8.200;2023-07-16T09:01:48;100471.94;;;20.83;62.52
7200;BME280;3641;49.082;8.200;2023-07-16T09:04:15;100475.16;;;20.92;61.55
7200;BME280;3641;49.082;8.200;2023-07-16T09:06:42;100475.31;;;20.68;60.95
7200;BME280;3641;49.082;8.200;2023-07-16T09:09:19;100476.66;;;20.83;61.43
7200;BME280;3641;49.082;8.200;2023-07-16T09:11:46;100477.97;;;20.35;60.62
7200;BME280;3641;49.082;8.200;2023-07-16T09:14:15;100477.91;;;20.75;59.96
7200;BME280;3641;49.082;8.200;2023-07-16T09:16:42;100469.69;;;20.80;59.96
7200;BME280;3641;49.082;8.200;2023-07-16T09:19:09;100473.31;;;20.81;59.81
7200;BME280;3641;49.082;8.200;2023-07-16T09:21:38;100466.50;;;20.89;60.58
7200;BME280;3641;49.082;8.200;2023-07-16T09:24:06;100467.94;;;20.91;59.31
7200;BME280;3641;49.082;8.200;2023-07-16T09:26:36;100470.63;;;20.86;58.30
7200;BME280;3641;49.082;8.200;2023-07-16T09:29:05;100474.16;;;20.53;58.12
7200;BME280;3641;49.082;8.200;2023-07-16T09:31:32;100484.94;;;20.66;57.44
7200;BME280;3641;49.082;8.200;2023-07-16T09:33:58;100479.59;;;20.93;57.83
7200;BME280;3641;49.082;8.200;2023-07-16T09:36:25;100486.69;;;21.01;61.49
7200;BME280;3641;49.082;8.200;2023-07-16T09:38:53;100478.19;;;21.08;61.06
7200;BME280;3641;49.082;8.200;2023-07-16T09:41:20;100481.97;;;21.18;58.95
7200;BME280;3641;49.082;8.200;2023-07-16T09:43:48;100474.81;;;21.39;56.98
7200;BME280;3641;49.082;8.200;2023-07-16T09:46:15;100470.19;;;21.45;58.13
7200;BME280;3641;49.082;8.200;2023-07-16T09:48:41;100477.84;;;21.38;56.46
7200;BME280;3641;49.082;8.200;2023-07-16T09:51:11;100472.81;;;21.52;57.58
7200;BME280;3641;49.082;8.200;2023-07-16T09:53:40;100477.94;;;21.43;57.68
7200;BME280;3641;49.082;8.200;2023-07-16T09:56:10;100480.72;;;21.26;57.09
7200;BME280;3641;49.082;8.200;2023-07-16T09:58:38;100476.94;;;21.49;57.13
7200;BME280;3641;49.082;8.200;2023-07-16T10:01:07;100479.69;;;21.32;57.42
7200;BME280;3641;49.082;8.200;2023-07-16T10:03:34;100484.94;;;21.29;56.50
7200;BME280;3641;49.082;8.200;2023-07-16T10:06:06;100487.72;;;21.29;58.73
7200;BME280;3641;49.082;8.200;2023-07-16T10:08:34;100485.34;;;21.20;56.59
7200;BME280;3641;49.082;8.200;2023-07-16T10:11:00;100479.84;;;21.42;56.62
7200;BME280;3641;49.082;8.200;2023-07-16T10:13:27;100480.31;;;21.51;54.02
7200;BME280;3641;49.082;8.200;2023-07-16T10:15:55;100485.41;;;21.42;54.67
7200;BME280;3641;49.082;8.200;2023-07-16T10:18:27;100482.88;;;21.75;54.19
7200;BME280;3641;49.082;8.200;2023-07-16T10:21:00;100474.66;;;21.29;52.88
7200;BME280;3641;49.082;8.200;2023-07-16T10:23:36;100469.41;;;21.89;54.37
7200;BME280;3641;49.082;8.200;2023-07-16T10:26:04;100469.81;;;22.20;53.63
7200;BME280;3641;49.082;8.200;2023-07-16T10:28:31;100451.66;;;22.34;51.96
7200;BME280;3641;49.082;8.200;2023-07-16T10:30:57;100471.13;;;22.12;48.38
7200;BME280;3641;49.082;8.200;2023-07-16T10:33:24;100467.16;;;22.52;49.06
7200;BME280;3641;49.082;8.200;2023-07-16T10:35:52;100472.41;;;22.76;47.54
7200;BME280;3641;49.082;8.200;2023-07-16T10:38:18;100468.31;;;22.83;47.31
7200;BME280;3641;49.082;8.200;2023-07-16T10:40:45;100455.75;;;23.13;46.17
7200;BME280;3641;49.082;8.200;2023-07-16T10:43:12;100462.59;;;23.00;47.86
7200;BME280;3641;49.082;8.200;2023-07-16T10:45:39;100450.34;;;23.01;45.55
7200;BME280;3641;49.082;8.200;2023-07-16T10:48:05;100466.84;;;22.48;45.51
7200;BME280;3641;49.082;8.200;2023-07-16T10:50:32;100454.19;;;22.63;48.01
7200;BME280;3641;49.082;8.200;2023-07-16T10:53:00;100451.38;;;22.90;45.60
7200;BME280;3641;49.082;8.200;2023-07-16T10:55:27;100452.94;;;23.08;47.23
7200;BME280;3641;49.082;8.200;2023-07-16T10:57:55;100432.78;;;23.33;45.22
7200;BME280;3641;49.082;8.200;2023-07-16T11:00:22;100446.03;;;23.16;44.30
7200;BME280;3641;49.082;8.200;2023-07-16T11:02:49;100449.00;;;23.42;44.36
7200;BME280;3641;49.082;8.200;2023-07-16T11:05:17;100453.50;;;23.48;45.06
7200;BME280;3641;49.082;8.200;2023-07-16T11:07:44;100450.19;;;23.56;43.11
7200;BME280;3641;49.082;8.200;2023-07-16T11:10:14;100450.50;;;23.17;43.60
7200;BME280;3641;49.082;8.200;2023-07-16T11:12:41;100437.41;;;23.60;43.85
7200;BME280;3641;49.082;8.200;2023-07-16T11:15:09;100448.25;;;23.56;42.79
7200;BME280;3641;49.082;8.200;2023-07-16T11:17:37;100433.00;;;23.69;46.01
7200;BME280;3641;49.082;8.200;2023-07-16T11:20:08;100431.50;;;23.51;48.77
7200;BME280;3641;49.082;8.200;2023-07-16T11:22:38;100433.34;;;23.35;44.91
7200;BME280;3641;49.082;8.200;2023-07-16T11:25:12;100436.91;;;23.68;44.01
7200;BME280;3641;49.082;8.200;2023-07-16T11:27:41;100439.06;;;23.56;44.90
7200;BME280;3641;49.082;8.200;2023-07-16T11:30:08;100447.50;;;23.66;41.73
7200;BME280;3641;49.082;8.200;2023-07-16T11:32:36;100433.38;;;23.83;44.75
7200;BME280;3641;49.082;8.200;2023-07-16T11:35:04;100438.53;;;23.64;42.67
7200;BME280;3641;49.082;8.200;2023-07-16T11:37:32;100440.78;;;23.25;42.97
7200;BME280;3641;49.082;8.200;2023-07-16T11:40:02;100440.59;;;23.31;43.06
7200;BME280;3641;49.082;8.200;2023-07-16T11:42:31;100443.00;;;23.60;42.45
7200;BME280;3641;49.082;8.200;2023-07-16T11:44:58;100426.84;;;23.62;45.47
7200;BME280;3641;49.082;8.200;2023-07-16T11:47:25;100422.06;;;23.57;43.56
7200;BME280;3641;49.082;8.200;2023-07-16T11:49:53;100435.63;;;23.91;43.58
7200;BME280;3641;49.082;8.200;2023-07-16T11:52:20;100434.66;;;23.70;46.97
7200;BME280;3641;49.082;8.200;2023-07-16T11:54:47;100440.44;;;24.06;43.29
7200;BME280;3641;49.082;8.200;2023-07-16T11:57:13;100427.34;;;24.07;42.05
7200;BME280;3641;49.082;8.200;2023-07-16T11:59:41;100430.38;;;23.95;43.61
7200;BME280;3641;49.082;8.200;2023-07-16T12:02:08;100428.47;;;24.11;43.42
7200;BME280;3641;49.082;8.200;2023-07-16T12:04:35;100427.88;;;24.09;43.18
7200;BME280;3641;49.082;8.200;2023-07-16T12:07:01;100427.88;;;24.04;42.55
7200;BME280;3641;49.082;8.200;2023-07-16T12:09:28;100418.72;;;24.19;45.13
7200;BME280;3641;49.082;8.200;2023-07-16T12:11:54;100420.41;;;24.20;47.34
7200;BME280;3641;49.082;8.200;2023-07-16T12:14:21;100421.59;;;24.44;45.54
7200;BME280;3641;49.082;8.200;2023-07-16T12:16:48;100421.00;;;24.27;41.51
7200;BME280;3641;49.082;8.200;2023-07-16T12:19:15;100419.38;;;24.57;46.14
7200;BME280;3641;49.082;8.200;2023-07-16T12:21:41;100427.25;;;23.91;42.00
7200;BME280;3641;49.082;8.200;2023-07-16T12:24:08;100407.78;;;23.44;43.15
7200;BME280;3641;49.082;8.200;2023-07-16T12:26:35;100412.63;;;24.27;45.35
7200;BME280;3641;49.082;8.200;2023-07-16T12:29:01;100410.38;;;24.34;47.18
7200;BME280;3641;49.082;8.200;2023-07-16T12:31:29;100403.44;;;24.42;46.89
7200;BME280;3641;49.082;8.200;2023-07-16T12:33:58;100407.59;;;24.29;42.94
7200;BME280;3641;49.082;8.200;2023-07-16T12:36:25;100404.56;;;24.46;43.58
7200;BME280;3641;49.082;8.200;2023-07-16T12:38:51;100400.25;;;24.02;39.72
7200;BME280;3641;49.082;8.200;2023-07-16T12:41:17;100397.56;;;24.48;41.27
7200;BME280;3641;49.082;8.200;2023-07-16T12:43:45;100395.91;;;24.53;44.60
7200;BME280;3641;49.082;8.200;2023-07-16T12:46:12;100388.63;;;24.21;39.89
7200;BME280;3641;49.082;8.200;2023-07-16T12:48:38;100386.38;;;23.49;40.54
7200;BME280;3641;49.082;8.200;2023-07-16T12:51:06;100396.44;;;24.29;41.14
7200;BME280;3641;49.082;8.200;2023-07-16T12:53:33;100382.72;;;24.12;40.55
7200;BME280;3641;49.082;8.200;2023-07-16T12:55:59;100386.38;;;24.33;40.52
7200;BME280;3641;49.082;8.200;2023-07-16T12:58:26;100377.13;;;24.07;41.58
7200;BME280;3641;49.082;8.200;2023-07-16T13:00:52;100402.00;;;24.24;40.80
7200;BME280;3641;49.082;8.200;2023-07-16T13:03:18;100393.72;;;24.60;41.90
7200;BME280;3641;49.082;8.200;2023-07-16T13:05:46;100390.59;;;24.30;39.79
7200;BME280;3641;49.082;8.200;2023-07-16T13:08:14;100387.03;;;24.66;42.95
7200;BME280;3641;49.082;8.200;2023-07-16T13:10:41;100394.28;;;24.72;40.79
7200;BME280;3641;49.082;8.200;2023-07-16T13:13:08;100386.69;;;24.42;42.87